sensor_id;sensor_type;location;lat;lon;timestamp;P1;durP1;ratioP1;P2;durP2;ratioP2
37199;SDS011;23096;50.892;16.746;2024-03-06T00:01:34;72.30;;;38.70;;
37199;SDS011;23096;50.892;16.746;2024-03-06T00:04:00;44.40;;;29.00;;
37199;SDS011;23096;50.892;16.746;2024-03-06T00:06:28;43.00;;;26.80;;
37199;SDS011;23096;50.892;16.746;2024-03-06T00:08:55;41.80;;;27.10;;
37199;SDS011;23096;50.892;16.746;2024-03-06T00:11:21;42.30;;;25.80;;
37199;SDS011;23096;50.892;16.746;2024-03-06T00:13:47;39.10;;;25.10;;
37199;SDS011;23096;50.892;16.746;2024-03-06T00:16:13;38.60;;;26.20;;
37199;SDS011;23096;50.892;16.746;2024-03-06T00:18:38;40.10;;;26.30;;
37199;SDS011;23096;50.892;16.746;2024-03-06T00:21:05;37.70;;;25.30;;
37199;SDS011;23096;50.892;16.746;2024-03-06T00:23:32;39.30;;;26.30;;
37199;SDS011;23096;50.892;16.746;2024-03-06T00:25:57;38.00;;;25.20;;
37199;SDS011;23096;50.892;16.746;2024-03-06T00:28:23;35.00;;;25.30;;
37199;SDS011;23096;50.892;16.746;2024-03-06T00:30:49;40.00;;;24.70;;
37199;SDS011;23096;50.892;16.746;2024-03-06T00:33:15;41.80;;;26.10;;
37199;SDS011;23096;50.892;16.746;2024-03-06T00:35:40;38.90;;;24.80;;
37199;SDS011;23096;50.892;16.746;2024-03-06T00:38:06;40.20;;;26.80;;
37199;SDS011;23096;50.892;16.746;2024-03-06T00:40:31;38.10;;;26.20;;
37199;SDS011;23096;50.892;16.746;2024-03-06T00:42:57;42.10;;;25.80;;
37199;SDS011;23096;50.892;16.746;2024-03-06T00:45:23;39.10;;;26.70;;
37199;SDS011;23096;50.892;16.746;2024-03-06T00:47:49;40.70;;;27.60;;
37199;SDS011;23096;50.892;16.746;2024-03-06T00:50:15;40.70;;;26.00;;
37199;SDS011;23096;50.892;16.746;2024-03-06T00:52:42;41.80;;;27.30;;
37199;SDS011;23096;50.892;16.746;2024-03-06T00:55:08;41.60;;;27.60;;
37199;SDS011;23096;50.892;16.746;2024-03-06T00:57:35;47.60;;;27.70;;
37199;SDS011;23096;50.892;16.746;2024-03-06T01:00:02;41.10;;;27.20;;
37199;SDS011;23096;50.892;16.746;2024-03-06T01:02:39;44.80;;;28.20;;
37199;SDS011;23096;50.892;16.746;2024-03-06T01:05:05;39.90;;;26.40;;
37199;SDS011;23096;50.892;16.746;2024-03-06T01:07:32;42.00;;;26.50;;
37199;SDS011;23096;50.892;16.746;2024-03-06T01:09:59;40.90;;;26.00;;
37199;SDS011;23096;50.892;16.746;2024-03-06T01:12:28;37.50;;;25.80;;
37199;SDS011;23096;50.892;16.746;2024-03-06T01:14:54;43.60;;;27.70;;
37199;SDS011;23096;50.892;16.746;2024-03-06T01:17:19;44.70;;;26.80;;
37199;SDS011;23096;50.892;16.746;2024-03-06T01:19:45;37.70;;;26.70;;
37199;SDS011;23096;50.892;16.746;2024-03-06T01:22:10;41.30;;;26.50;;
37199;SDS011;23096;50.892;16.746;2024-03-06T01:24:38;40.40;;;25.40;;
37199;SDS011;23096;50.892;16.746;2024-03-06T01:27:04;37.90;;;25.80;;
37199;SDS011;23096;50.892;16.746;2024-03-06T01:29:30;41.40;;;25.90;;
37199;SDS011;23096;50.892;16.746;2024-03-06T01:31:56;35.60;;;23.40;;
37199;SDS011;23096;50.892;16.746;2024-03-06T01:34:21;35.70;;;24.30;;
37199;SDS011;23096;50.892;16.746;2024-03-06T01:36:47;39.60;;;26.10;;
37199;SDS011;23096;50.892;16.746;2024-03-06T01:39:13;39.20;;;24.90;;
37199;SDS011;23096;50.892;16.746;2024-03-06T01:41:49;39.20;;;25.30;;
37199;SDS011;23096;50.892;16.746;2024-03-06T01:44:15;39.60;;;25.90;;
37199;SDS011;23096;50.892;16.746;2024-03-06T01:46:43;43.20;;;26.60;;
37199;SDS011;23096;50.892;16.746;2024-03-06T01:49:15;40.40;;;24.60;;
37199;SDS011;23096;50.892;16.746;2024-03-06T01:51:41;41.20;;;25.70;;
37199;SDS011;23096;50.892;16.746;2024-03-06T01:54:10;38.80;;;24.80;;
37199;SDS011;23096;50.892;16.746;2024-03-06T01:56:36;40.70;;;25.10;;
37199;SDS011;23096;50.892;16.746;2024-03-06T01:59:06;39.50;;;25.30;;
37199;SDS011;23096;50.892;16.746;2024-03-06T02:01:32;39.90;;;25.60;;
37199;SDS011;23096;50.892;16.746;2024-03-06T02:03:58;40.80;;;26.30;;
37199;SDS011;23096;50.892;16.746;2024-03-06T02:06:25;38.30;;;23.90;;
37199;SDS011;23096;50.892;16.746;2024-03-06T02:08:51;37.90;;;24.30;;
37199;SDS011;23096;50.892;16.746;2024-03-06T02:11:16;34.80;;;21.80;;
37199;SDS011;23096;50.892;16.746;2024-03-06T02:13:42;41.40;;;25.20;;
37199;SDS011;23096;50.892;16.746;2024-03-06T02:16:09;41.30;;;25.40;;
37199;SDS011;23096;50.892;16.746;2024-03-06T02:18:35;35.50;;;23.00;;
37199;SDS011;23096;50.892;16.746;2024-03-06T02:21:00;37.10;;;25.60;;
37199;SDS011;23096;50.892;16.746;2024-03-06T02:23:26;37.50;;;24.20;;
37199;SDS011;23096;50.892;16.746;2024-03-06T02:25:51;37.40;;;23.60;;
37199;SDS011;23096;50.892;16.746;2024-03-06T02:28:17;37.10;;;24.00;;
37199;SDS011;23096;50.892;16.746;2024-03-06T02:30:43;34.10;;;22.70;;
37199;SDS011;23096;50.892;16.746;2024-03-06T02:33:09;33.50;;;22.10;;
37199;SDS011;23096;50.892;16.746;2024-03-06T02:35:35;33.00;;;22.10;;
37199;SDS011;23096;50.892;16.746;2024-03-06T02:38:03;33.90;;;23.10;;
37199;SDS011;23096;50.892;16.746;2024-03-06T02:40:32;35.10;;;22.00;;
37199;SDS011;23096;50.892;16.746;2024-03-06T02:42:58;33.90;;;22.30;;
37199;SDS011;23096;50.892;16.746;2024-03-06T02:45:23;34.30;;;22.70;;
37199;SDS011;23096;50.892;16.746;2024-03-06T02:47:49;33.20;;;21.20;;
37199;SDS011;23096;50.892;16.746;2024-03-06T02:50:14;34.60;;;21.60;;
37199;SDS011;23096;50.892;16.746;2024-03-06T02:52:40;34.20;;;22.60;;
37199;SDS011;23096;50.892;16.746;2024-03-06T02:55:06;37.70;;;25.20;;
37199;SDS011;23096;50.892;16.746;2024-03-06T02:57:34;35.50;;;23.60;;
37199;SDS011;23096;50.892;16.746;2024-03-06T03:00:00;34.50;;;23.20;;
37199;SDS011;23096;50.892;16.746;2024-03-06T03:02:26;37.00;;;23.40;;
37199;SDS011;23096;50.892;16.746;2024-03-06T03:04:52;36.50;;;23.40;;
37199;SDS011;23096;50.892;16.746;2024-03-06T03:07:18;39.40;;;25.60;;
37199;SDS011;23096;50.892;16.746;2024-03-06T03:09:45;39.00;;;25.80;;
37199;SDS011;23096;50.892;16.746;2024-03-06T03:12:11;42.80;;;27.50;;
37199;SDS011;23096;50.892;16.746;2024-03-06T03:14:37;42.90;;;29.10;;
37199;SDS011;23096;50.892;16.746;2024-03-06T03:17:03;43.30;;;28.50;;
37199;SDS011;23096;50.892;16.746;2024-03-06T03:19:31;45.30;;;29.60;;
37199;SDS011;23096;50.892;16.746;2024-03-06T03:21:57;50.60;;;31.70;;
37199;SDS011;23096;50.892;16.746;2024-03-06T03:24:23;45.80;;;29.90;;
37199;SDS011;23096;50.892;16.746;2024-03-06T03:26:51;47.50;;;31.80;;
37199;SDS011;23096;50.892;16.746;2024-03-06T03:29:17;51.60;;;33.90;;
37199;SDS011;23096;50.892;16.746;2024-03-06T03:31:43;53.70;;;33.20;;
37199;SDS011;23096;50.892;16.746;2024-03-06T03:34:08;54.70;;;33.10;;
37199;SDS011;23096;50.892;16.746;2024-03-06T03:36:35;50.70;;;32.60;;
37199;SDS011;23096;50.892;16.746;2024-03-06T03:39:00;49.10;;;31.80;;
37199;SDS011;23096;50.892;16.746;2024-03-06T03:41:26;47.50;;;30.60;;
37199;SDS011;23096;50.892;16.746;2024-03-06T03:43:51;51.00;;;32.40;;
37199;SDS011;23096;50.892;16.746;2024-03-06T03:46:17;45.20;;;30.80;;
37199;SDS011;23096;50.892;16.746;2024-03-06T03:48:42;48.00;;;30.30;;
37199;SDS011;23096;50.892;16.746;2024-03-06T03:51:08;49.90;;;34.00;;
37199;SDS011;23096;50.892;16.746;2024-03-06T03:53:34;50.90;;;32.40;;
37199;SDS011;23096;50.892;16.746;2024-03-06T03:56:00;51.70;;;31.90;;
37199;SDS011;23096;50.892;16.746;2024-03-06T03:58:26;45.50;;;29.80;;
37199;SDS011;23096;50.892;16.746;2024-03-06T04:00:51;43.10;;;29.20;;
37199;SDS011;23096;50.892;16.746;2024-03-06T04:03:19;45.50;;;30.40;;
37199;SDS011;23096;50.892;16.746;2024-03-06T04:05:46;45.90;;;31.10;;
37199;SDS011;23096;50.892;16.746;2024-03-06T04:08:12;50.00;;;30.60;;
37199;SDS011;23096;50.892;16.746;2024-03-06T04:10:38;48.40;;;30.70;;
37199;SDS011;23096;50.892;16.746;2024-03-06T04:13:04;48.50;;;29.90;;
37199;SDS011;23096;50.892;16.746;2024-03-06T04:15:29;50.00;;;32.40;;
37199;SDS011;23096;50.892;16.746;2024-03-06T04:17:55;49.70;;;31.40;;
37199;SDS011;23096;50.892;16.746;2024-03-06T04:20:21;48.30;;;32.30;;
37199;SDS011;23096;50.892;16.746;2024-03-06T04:22:47;50.10;;;31.10;;
37199;SDS011;23096;50.892;16.746;2024-03-06T04:25:15;47.40;;;30.20;;
37199;SDS011;23096;50.892;16.746;2024-03-06T04:27:41;48.60;;;32.00;;
37199;SDS011;23096;50.892;16.746;2024-03-06T04:30:06;49.80;;;32.70;;
37199;SDS011;23096;50.892;16.746;2024-03-06T04:32:36;50.20;;;31.90;;
37199;SDS011;23096;50.892;16.746;2024-03-06T04:35:01;51.60;;;34.30;;
37199;SDS011;23096;50.892;16.746;2024-03-06T04:37:30;49.10;;;31.40;;
37199;SDS011;23096;50.892;16.746;2024-03-06T04:39:58;55.50;;;33.50;;
37199;SDS011;23096;50.892;16.746;2024-03-06T04:42:24;51.40;;;31.70;;
37199;SDS011;23096;50.892;16.746;2024-03-06T04:44:49;53.50;;;35.80;;
37199;SDS011;23096;50.892;16.746;2024-03-06T04:47:15;50.00;;;32.60;;
37199;SDS011;23096;50.892;16.746;2024-03-06T04:49:41;51.50;;;33.50;;
37199;SDS011;23096;50.892;16.746;2024-03-06T04:52:07;54.60;;;33.40;;
37199;SDS011;23096;50.892;16.746;2024-03-06T04:54:34;51.70;;;33.20;;
37199;SDS011;23096;50.892;16.746;2024-03-06T04:57:00;55.10;;;33.70;;
37199;SDS011;23096;50.892;16.746;2024-03-06T04:59:25;56.70;;;35.20;;
37199;SDS011;23096;50.892;16.746;2024-03-06T05:01:52;53.50;;;33.20;;
37199;SDS011;23096;50.892;16.746;2024-03-06T05:04:17;50.30;;;32.90;;
37199;SDS011;23096;50.892;16.746;2024-03-06T05:06:43;50.20;;;32.30;;
37199;SDS011;23096;50.892;16.746;2024-03-06T05:09:08;57.10;;;34.30;;
37199;SDS011;23096;50.892;16.746;2024-03-06T05:11:37;52.10;;;32.50;;
37199;SDS011;23096;50.892;16.746;2024-03-06T05:14:03;51.70;;;32.40;;
37199;SDS011;23096;50.892;16.746;2024-03-06T05:16:29;44.70;;;30.50;;
37199;SDS011;23096;50.892;16.746;2024-03-06T05:18:54;53.00;;;33.60;;
37199;SDS011;23096;50.892;16.746;2024-03-06T05:21:21;49.70;;;32.40;;
37199;SDS011;23096;50.892;16.746;2024-03-06T05:23:48;50.90;;;31.80;;
37199;SDS011;23096;50.892;16.746;2024-03-06T05:26:14;49.60;;;31.00;;
37199;SDS011;23096;50.892;16.746;2024-03-06T05:28:40;48.50;;;31.10;;
37199;SDS011;23096;50.892;16.746;2024-03-06T05:31:15;46.00;;;28.40;;
37199;SDS011;23096;50.892;16.746;2024-03-06T05:33:48;50.50;;;31.60;;
37199;SDS011;23096;50.892;16.746;2024-03-06T05:36:15;48.60;;;30.20;;
37199;SDS011;23096;50.892;16.746;2024-03-06T05:38:42;48.40;;;31.80;;
37199;SDS011;23096;50.892;16.746;2024-03-06T05:41:09;50.20;;;31.20;;
37199;SDS011;23096;50.892;16.746;2024-03-06T05:43:34;47.70;;;31.00;;
37199;SDS011;23096;50.892;16.746;2024-03-06T05:46:00;49.80;;;32.30;;
37199;SDS011;23096;50.892;16.746;2024-03-06T05:48:26;50.40;;;31.40;;
37199;SDS011;23096;50.892;16.746;2024-03-06T05:50:52;49.90;;;31.70;;
37199;SDS011;23096;50.892;16.746;2024-03-06T05:53:18;49.40;;;32.30;;
37199;SDS011;23096;50.892;16.746;2024-03-06T05:55:43;47.00;;;30.00;;
37199;SDS011;23096;50.892;16.746;2024-03-06T05:58:09;52.70;;;33.20;;
37199;SDS011;23096;50.892;16.746;2024-03-06T06:00:35;46.20;;;30.10;;
37199;SDS011;23096;50.892;16.746;2024-03-06T06:03:00;47.60;;;30.50;;
37199;SDS011;23096;50.892;16.746;2024-03-06T06:05:26;46.50;;;30.80;;
37199;SDS011;23096;50.892;16.746;2024-03-06T06:07:51;51.80;;;33.10;;
37199;SDS011;23096;50.892;16.746;2024-03-06T06:10:17;56.10;;;33.90;;
37199;SDS011;23096;50.892;16.746;2024-03-06T06:12:44;55.50;;;33.60;;
37199;SDS011;23096;50.892;16.746;2024-03-06T06:15:10;51.00;;;33.40;;
37199;SDS011;23096;50.892;16.746;2024-03-06T06:17:36;57.90;;;35.70;;
37199;SDS011;23096;50.892;16.746;2024-03-06T06:20:05;55.70;;;35.60;;
37199;SDS011;23096;50.892;16.746;2024-03-06T06:22:36;54.20;;;34.90;;
37199;SDS011;23096;50.892;16.746;2024-03-06T06:25:02;55.20;;;34.50;;
37199;SDS011;23096;50.892;16.746;2024-03-06T06:27:28;60.10;;;37.00;;
37199;SDS011;23096;50.892;16.746;2024-03-06T06:29:54;56.60;;;35.60;;
37199;SDS011;23096;50.892;16.746;2024-03-06T06:32:20;56.00;;;34.50;;
37199;SDS011;23096;50.892;16.746;2024-03-06T06:34:46;54.80;;;36.00;;
37199;SDS011;23096;50.892;16.746;2024-03-06T06:37:11;57.70;;;36.60;;
37199;SDS011;23096;50.892;16.746;2024-03-06T06:39:37;56.70;;;35.50;;
37199;SDS011;23096;50.892;16.746;2024-03-06T06:42:03;59.10;;;36.60;;
37199;SDS011;23096;50.892;16.746;2024-03-06T06:44:29;60.60;;;37.70;;
37199;SDS011;23096;50.892;16.746;2024-03-06T06:46:54;54.20;;;36.50;;
37199;SDS011;23096;50.892;16.746;2024-03-06T06:49:21;57.60;;;37.80;;
37199;SDS011;23096;50.892;16.746;2024-03-06T06:51:47;55.70;;;37.30;;
37199;SDS011;23096;50.892;16.746;2024-03-06T06:54:14;56.80;;;35.20;;
37199;SDS011;23096;50.892;16.746;2024-03-06T06:56:40;58.30;;;36.20;;
37199;SDS011;23096;50.892;16.746;2024-03-06T06:59:05;61.10;;;38.50;;
37199;SDS011;23096;50.892;16.746;2024-03-06T07:01:31;59.80;;;36.10;;
37199;SDS011;23096;50.892;16.746;2024-03-06T07:03:58;57.50;;;36.30;;
37199;SDS011;23096;50.892;16.746;2024-03-06T07:06:24;59.20;;;36.80;;
37199;SDS011;23096;50.892;16.746;2024-03-06T07:08:50;52.10;;;34.80;;
37199;SDS011;23096;50.892;16.746;2024-03-06T07:11:16;60.80;;;38.30;;
37199;SDS011;23096;50.892;16.746;2024-03-06T07:13:43;53.90;;;35.40;;
37199;SDS011;23096;50.892;16.746;2024-03-06T07:16:09;55.80;;;34.00;;
37199;SDS011;23096;50.892;16.746;2024-03-06T07:18:34;52.40;;;33.10;;
37199;SDS011;23096;50.892;16.746;2024-03-06T07:21:00;59.00;;;34.20;;
37199;SDS011;23096;50.892;16.746;2024-03-06T07:23:26;55.70;;;35.90;;
37199;SDS011;23096;50.892;16.746;2024-03-06T07:25:51;57.50;;;36.00;;
37199;SDS011;23096;50.892;16.746;2024-03-06T07:28:17;60.00;;;38.10;;
37199;SDS011;23096;50.892;16.746;2024-03-06T07:30:44;54.70;;;36.90;;
37199;SDS011;23096;50.892;16.746;2024-03-06T07:33:21;57.40;;;35.90;;
37199;SDS011;23096;50.892;16.746;2024-03-06T07:35:47;48.40;;;31.70;;
37199;SDS011;23096;50.892;16.746;2024-03-06T07:38:12;53.90;;;32.20;;
37199;SDS011;23096;50.892;16.746;2024-03-06T07:40:38;49.20;;;31.30;;
37199;SDS011;23096;50.892;16.746;2024-03-06T07:43:03;47.10;;;30.70;;
37199;SDS011;23096;50.892;16.746;2024-03-06T07:45:30;51.70;;;32.50;;
37199;SDS011;23096;50.892;16.746;2024-03-06T07:47:55;49.90;;;32.40;;
37199;SDS011;23096;50.892;16.746;2024-03-06T07:50:21;45.30;;;30.10;;
37199;SDS011;23096;50.892;16.746;2024-03-06T07:52:47;54.20;;;33.10;;
37199;SDS011;23096;50.892;16.746;2024-03-06T07:55:12;48.60;;;32.00;;
37199;SDS011;23096;50.892;16.746;2024-03-06T07:57:38;57.90;;;32.50;;
37199;SDS011;23096;50.892;16.746;2024-03-06T08:00:05;53.50;;;31.70;;
37199;SDS011;23096;50.892;16.746;2024-03-06T08:02:40;49.50;;;29.60;;
37199;SDS011;23096;50.892;16.746;2024-03-06T08:05:09;48.20;;;29.80;;
37199;SDS011;23096;50.892;16.746;2024-03-06T08:07:38;56.30;;;35.80;;
37199;SDS011;23096;50.892;16.746;2024-03-06T08:10:09;46.30;;;30.90;;
37199;SDS011;23096;50.892;16.746;2024-03-06T08:12:39;48.90;;;32.10;;
37199;SDS011;23096;50.892;16.746;2024-03-06T08:15:09;59.10;;;38.60;;
37199;SDS011;23096;50.892;16.746;2024-03-06T08:17:38;51.40;;;32.00;;
37199;SDS011;23096;50.892;16.746;2024-03-06T08:20:06;53.60;;;33.20;;
37199;SDS011;23096;50.892;16.746;2024-03-06T08:22:42;50.60;;;30.70;;
37199;SDS011;23096;50.892;16.746;2024-03-06T08:25:09;50.40;;;32.30;;
37199;SDS011;23096;50.892;16.746;2024-03-06T08:27:37;43.00;;;28.10;;
37199;SDS011;23096;50.892;16.746;2024-03-06T08:30:05;47.40;;;29.70;;
37199;SDS011;23096;50.892;16.746;2024-03-06T08:32:34;46.30;;;30.30;;
37199;SDS011;23096;50.892;16.746;2024-03-06T08:35:05;47.00;;;29.50;;
37199;SDS011;23096;50.892;16.746;2024-03-06T08:37:34;45.50;;;29.90;;
37199;SDS011;23096;50.892;16.746;2024-03-06T08:40:01;47.10;;;30.50;;
37199;SDS011;23096;50.892;16.746;2024-03-06T08:42:28;44.20;;;29.80;;
37199;SDS011;23096;50.892;16.746;2024-03-06T08:44:54;53.20;;;32.10;;
37199;SDS011;23096;50.892;16.746;2024-03-06T08:47:19;42.10;;;27.60;;
37199;SDS011;23096;50.892;16.746;2024-03-06T08:49:45;44.50;;;28.70;;
37199;SDS011;23096;50.892;16.746;2024-03-06T08:52:11;42.80;;;27.70;;
37199;SDS011;23096;50.892;16.746;2024-03-06T08:54:36;40.70;;;28.20;;
37199;SDS011;23096;50.892;16.746;2024-03-06T08:57:04;49.90;;;31.50;;
37199;SDS011;23096;50.892;16.746;2024-03-06T08:59:30;44.70;;;30.90;;
37199;SDS011;23096;50.892;16.746;2024-03-06T09:01:56;48.20;;;29.90;;
37199;SDS011;23096;50.892;16.746;2024-03-06T09:04:21;45.20;;;30.70;;
37199;SDS011;23096;50.892;16.746;2024-03-06T09:06:47;44.40;;;28.20;;
37199;SDS011;23096;50.892;16.746;2024-03-06T09:09:14;45.00;;;29.70;;
37199;SDS011;23096;50.892;16.746;2024-03-06T09:11:43;42.20;;;28.50;;
37199;SDS011;23096;50.892;16.746;2024-03-06T09:14:09;43.40;;;28.60;;
37199;SDS011;23096;50.892;16.746;2024-03-06T09:16:35;50.90;;;27.80;;
37199;SDS011;23096;50.892;16.746;2024-03-06T09:19:01;46.10;;;31.30;;
37199;SDS011;23096;50.892;16.746;2024-03-06T09:21:27;42.60;;;27.00;;
37199;SDS011;23096;50.892;16.746;2024-03-06T09:23:53;48.40;;;28.00;;
37199;SDS011;23096;50.892;16.746;2024-03-06T09:26:19;40.70;;;27.10;;
37199;SDS011;23096;50.892;16.746;2024-03-06T09:28:45;43.50;;;27.40;;
37199;SDS011;23096;50.892;16.746;2024-03-06T09:31:11;41.30;;;27.60;;
37199;SDS011;23096;50.892;16.746;2024-03-06T09:33:39;46.80;;;28.30;;
37199;SDS011;23096;50.892;16.746;2024-03-06T09:36:31;44.50;;;27.80;;
37199;SDS011;23096;50.892;16.746;2024-03-06T09:38:58;43.80;;;27.40;;
37199;SDS011;23096;50.892;16.746;2024-03-06T09:41:24;37.30;;;25.50;;
37199;SDS011;23096;50.892;16.746;2024-03-06T09:43:50;34.30;;;23.50;;
37199;SDS011;23096;50.892;16.746;2024-03-06T09:46:15;35.20;;;23.70;;
37199;SDS011;23096;50.892;16.746;2024-03-06T09:48:46;29.30;;;19.90;;
37199;SDS011;23096;50.892;16.746;2024-03-06T09:51:12;32.10;;;20.40;;
37199;SDS011;23096;50.892;16.746;2024-03-06T09:53:39;32.80;;;20.30;;
37199;SDS011;23096;50.892;16.746;2024-03-06T09:56:08;35.10;;;20.60;;
37199;SDS011;23096;50.892;16.746;2024-03-06T09:58:37;36.10;;;21.50;;
37199;SDS011;23096;50.892;16.746;2024-03-06T10:01:03;33.30;;;21.40;;
37199;SDS011;23096;50.892;16.746;2024-03-06T10:03:32;33.30;;;21.90;;
37199;SDS011;23096;50.892;16.746;2024-03-06T10:05:59;29.10;;;19.10;;
37199;SDS011;23096;50.892;16.746;2024-03-06T10:08:25;25.80;;;17.20;;
37199;SDS011;23096;50.892;16.746;2024-03-06T10:10:52;27.60;;;16.40;;
37199;SDS011;23096;50.892;16.746;2024-03-06T10:13:17;25.00;;;17.00;;
37199;SDS011;23096;50.892;16.746;2024-03-06T10:15:59;27.70;;;18.50;;
37199;SDS011;23096;50.892;16.746;2024-03-06T10:18:27;28.50;;;19.00;;
37199;SDS011;23096;50.892;16.746;2024-03-06T10:20:54;33.70;;;19.90;;
37199;SDS011;23096;50.892;16.746;2024-03-06T10:23:21;34.20;;;19.30;;
37199;SDS011;23096;50.892;16.746;2024-03-06T10:25:49;32.10;;;21.00;;
37199;SDS011;23096;50.892;16.746;2024-03-06T10:28:18;27.10;;;18.70;;
37199;SDS011;23096;50.892;16.746;2024-03-06T10:30:45;29.70;;;19.50;;
37199;SDS011;23096;50.892;16.746;2024-03-06T10:33:14;39.00;;;20.60;;
37199;SDS011;23096;50.892;16.746;2024-03-06T10:35:44;26.20;;;18.80;;
37199;SDS011;23096;50.892;16.746;2024-03-06T10:38:11;28.00;;;17.60;;
37199;SDS011;23096;50.892;16.746;2024-03-06T10:40:38;24.40;;;14.90;;
37199;SDS011;23096;50.892;16.746;2024-03-06T10:43:08;28.00;;;15.90;;
37199;SDS011;23096;50.892;16.746;2024-03-06T10:45:39;24.40;;;16.20;;
37199;SDS011;23096;50.892;16.746;2024-03-06T10:48:25;30.60;;;17.30;;
37199;SDS011;23096;50.892;16.746;2024-03-06T10:50:53;32.60;;;18.60;;
37199;SDS011;23096;50.892;16.746;2024-03-06T10:53:21;28.30;;;20.20;;
37199;SDS011;23096;50.892;16.746;2024-03-06T10:55:49;29.20;;;19.40;;
37199;SDS011;23096;50.892;16.746;2024-03-06T10:58:15;33.60;;;20.70;;
37199;SDS011;23096;50.892;16.746;2024-03-06T11:00:45;27.70;;;18.20;;
37199;SDS011;23096;50.892;16.746;2024-03-06T11:03:14;29.00;;;19.00;;
37199;SDS011;23096;50.892;16.746;2024-03-06T11:05:41;30.40;;;18.90;;
37199;SDS011;23096;50.892;16.746;2024-03-06T11:08:09;28.40;;;19.00;;
37199;SDS011;23096;50.892;16.746;2024-03-06T11:10:37;30.30;;;18.30;;
37199;SDS011;23096;50.892;16.746;2024-03-06T11:13:20;30.50;;;18.20;;
37199;SDS011;23096;50.892;16.746;2024-03-06T11:15:48;31.60;;;17.50;;
37199;SDS011;23096;50.892;16.746;2024-03-06T11:23:28;30.30;;;17.60;;
37199;SDS011;23096;50.892;16.746;2024-03-06T11:28:27;30.50;;;17.00;;
37199;SDS011;23096;50.892;16.746;2024-03-06T11:33:27;25.20;;;15.90;;
37199;SDS011;23096;50.892;16.746;2024-03-06T11:36:23;28.60;;;19.30;;
37199;SDS011;23096;50.892;16.746;2024-03-06T11:38:57;28.60;;;19.00;;
37199;SDS011;23096;50.892;16.746;2024-03-06T11:41:28;27.90;;;19.00;;
37199;SDS011;23096;50.892;16.746;2024-03-06T11:43:58;39.90;;;21.40;;
37199;SDS011;23096;50.892;16.746;2024-03-06T11:46:44;30.40;;;19.20;;
37199;SDS011;23096;50.892;16.746;2024-03-06T11:51:46;33.30;;;18.50;;
37199;SDS011;23096;50.892;16.746;2024-03-06T11:54:12;28.70;;;19.10;;
37199;SDS011;23096;50.892;16.746;2024-03-06T11:56:39;27.70;;;17.50;;
37199;SDS011;23096;50.892;16.746;2024-03-06T11:59:05;29.20;;;19.10;;
37199;SDS011;23096;50.892;16.746;2024-03-06T12:01:35;28.20;;;16.80;;
37199;SDS011;23096;50.892;16.746;2024-03-06T12:04:02;28.40;;;18.40;;
37199;SDS011;23096;50.892;16.746;2024-03-06T12:06:30;36.90;;;19.80;;
37199;SDS011;23096;50.892;16.746;2024-03-06T12:08:58;25.50;;;17.20;;
37199;SDS011;23096;50.892;16.746;2024-03-06T12:11:24;30.20;;;18.90;;
37199;SDS011;23096;50.892;16.746;2024-03-06T12:13:51;28.50;;;18.30;;
37199;SDS011;23096;50.892;16.746;2024-03-06T12:16:17;26.30;;;18.70;;
37199;SDS011;23096;50.892;16.746;2024-03-06T12:18:43;30.30;;;18.80;;
37199;SDS011;23096;50.892;16.746;2024-03-06T12:21:10;27.50;;;17.00;;
37199;SDS011;23096;50.892;16.746;2024-03-06T12:23:35;26.50;;;18.40;;
37199;SDS011;23096;50.892;16.746;2024-03-06T12:26:08;29.40;;;18.20;;
37199;SDS011;23096;50.892;16.746;2024-03-06T12:28:36;25.90;;;17.10;;
37199;SDS011;23096;50.892;16.746;2024-03-06T12:31:03;29.40;;;15.90;;
37199;SDS011;23096;50.892;16.746;2024-03-06T12:33:29;27.30;;;16.40;;
37199;SDS011;23096;50.892;16.746;2024-03-06T12:38:28;20.80;;;14.00;;
37199;SDS011;23096;50.892;16.746;2024-03-06T12:40:54;26.20;;;16.90;;
37199;SDS011;23096;50.892;16.746;2024-03-06T12:43:21;28.70;;;15.90;;
37199;SDS011;23096;50.892;16.746;2024-03-06T12:45:47;27.50;;;18.10;;
37199;SDS011;23096;50.892;16.746;2024-03-06T12:48:12;30.40;;;18.50;;
37199;SDS011;23096;50.892;16.746;2024-03-06T12:50:38;27.90;;;19.90;;
37199;SDS011;23096;50.892;16.746;2024-03-06T12:53:04;28.70;;;19.50;;
37199;SDS011;23096;50.892;16.746;2024-03-06T12:55:32;33.20;;;18.90;;
37199;SDS011;23096;50.892;16.746;2024-03-06T12:57:58;34.40;;;20.00;;
37199;SDS011;23096;50.892;16.746;2024-03-06T13:00:23;36.00;;;22.00;;
37199;SDS011;23096;50.892;16.746;2024-03-06T13:02:49;31.90;;;19.50;;
37199;SDS011;23096;50.892;16.746;2024-03-06T13:05:18;27.90;;;18.30;;
37199;SDS011;23096;50.892;16.746;2024-03-06T13:07:44;24.90;;;15.60;;
37199;SDS011;23096;50.892;16.746;2024-03-06T13:10:10;23.70;;;16.20;;
37199;SDS011;23096;50.892;16.746;2024-03-06T13:12:39;24.20;;;16.30;;
37199;SDS011;23096;50.892;16.746;2024-03-06T13:15:05;25.40;;;15.80;;
37199;SDS011;23096;50.892;16.746;2024-03-06T13:17:32;26.40;;;17.30;;
37199;SDS011;23096;50.892;16.746;2024-03-06T13:19:59;25.60;;;16.70;;
37199;SDS011;23096;50.892;16.746;2024-03-06T13:22:24;43.70;;;19.10;;
37199;SDS011;23096;50.892;16.746;2024-03-06T13:24:50;30.90;;;18.60;;
37199;SDS011;23096;50.892;16.746;2024-03-06T13:27:16;29.50;;;19.40;;
37199;SDS011;23096;50.892;16.746;2024-03-06T13:29:42;34.00;;;21.10;;
37199;SDS011;23096;50.892;16.746;2024-03-06T13:32:07;32.80;;;18.10;;
37199;SDS011;23096;50.892;16.746;2024-03-06T13:34:33;35.80;;;18.70;;
37199;SDS011;23096;50.892;16.746;2024-03-06T13:43:44;21.60;;;15.00;;
37199;SDS011;23096;50.892;16.746;2024-03-06T13:46:10;28.70;;;14.50;;
37199;SDS011;23096;50.892;16.746;2024-03-06T13:48:37;26.30;;;16.10;;
37199;SDS011;23096;50.892;16.746;2024-03-06T13:51:03;27.60;;;14.90;;
37199;SDS011;23096;50.892;16.746;2024-03-06T13:53:30;25.30;;;15.80;;
37199;SDS011;23096;50.892;16.746;2024-03-06T13:55:55;25.10;;;16.50;;
37199;SDS011;23096;50.892;16.746;2024-03-06T13:58:21;25.30;;;16.90;;
37199;SDS011;23096;50.892;16.746;2024-03-06T14:00:47;29.00;;;19.30;;
37199;SDS011;23096;50.892;16.746;2024-03-06T14:03:12;32.30;;;20.00;;
37199;SDS011;23096;50.892;16.746;2024-03-06T14:05:38;35.00;;;20.40;;
37199;SDS011;23096;50.892;16.746;2024-03-06T14:08:04;27.70;;;19.00;;
37199;SDS011;23096;50.892;16.746;2024-03-06T14:10:30;34.70;;;20.30;;
37199;SDS011;23096;50.892;16.746;2024-03-06T14:13:00;31.50;;;21.00;;
37199;SDS011;23096;50.892;16.746;2024-03-06T14:15:25;36.20;;;21.40;;
37199;SDS011;23096;50.892;16.746;2024-03-06T14:17:52;29.70;;;20.40;;
37199;SDS011;23096;50.892;16.746;2024-03-06T14:20:21;33.10;;;20.90;;
37199;SDS011;23096;50.892;16.746;2024-03-06T14:22:47;29.40;;;20.40;;
37199;SDS011;23096;50.892;16.746;2024-03-06T14:25:13;35.70;;;21.90;;
37199;SDS011;23096;50.892;16.746;2024-03-06T14:27:39;29.80;;;18.80;;
37199;SDS011;23096;50.892;16.746;2024-03-06T14:30:05;27.50;;;18.10;;